createdAt,value
2023-03-24T00:01:27.633Z,99695.06
2023-03-24T00:03:54.101Z,99691.03
2023-03-24T00:06:22.743Z,99687.38
2023-03-24T00:08:49.468Z,99685.97
2023-03-24T00:11:18.548Z,99678.69
2023-03-24T00:13:46.954Z,99675.88
2023-03-24T00:16:16.806Z,99681.31
2023-03-24T00:18:43.391Z,99675.06
2023-03-24T00:21:11.604Z,99660.22
2023-03-24T00:23:42.574Z,99652.31
2023-03-24T00:26:15.213Z,99656.59
2023-03-24T00:28:44.493Z,99649.50
2023-03-24T00:31:14.660Z,99639.31
2023-03-24T00:33:42.362Z,99638.72
2023-03-24T00:36:14.101Z,99629.69
2023-03-24T00:38:41.370Z,99627.53
2023-03-24T00:41:10.593Z,99621.59
2023-03-24T00:43:37.636Z,99619.16
2023-03-24T00:46:07.267Z,99618.38
2023-03-24T00:48:34.174Z,99601.84
2023-03-24T00:51:05.596Z,99594.47
2023-03-24T00:53:31.940Z,99592.50
2023-03-24T00:55:58.921Z,99585.75
2023-03-24T00:58:25.723Z,99601.41
2023-03-24T01:00:54.780Z,99586.97
2023-03-24T01:03:25.005Z,99586.41
2023-03-24T01:05:54.294Z,99586.25
2023-03-24T01:08:20.698Z,99575.69
2023-03-24T01:10:53.322Z,99575.25
2023-03-24T01:13:21.852Z,99582.13
2023-03-24T01:15:49.259Z,99589.94
2023-03-24T01:18:16.565Z,99597.69
2023-03-24T01:20:49.026Z,99586.53
2023-03-24T01:23:19.940Z,99588.59
2023-03-24T01:25:48.109Z,99582.28
2023-03-24T01:28:21.569Z,99581.50
2023-03-24T01:30:47.948Z,99578.28
2023-03-24T01:33:14.329Z,99567.50
2023-03-24T01:35:41.112Z,99558.25
2023-03-24T01:38:09.630Z,99558.09
2023-03-24T01:40:38.458Z,99550.19
2023-03-24T01:43:06.216Z,99537.50
2023-03-24T01:45:38.807Z,99533.13
2023-03-24T01:48:09.220Z,99523.56
2023-03-24T01:50:35.976Z,99531.28
2023-03-24T01:53:02.746Z,99522.91
2023-03-24T01:55:31.500Z,99517.63
2023-03-24T01:58:02.065Z,99513.09
2023-03-24T02:00:29.681Z,99504.59
2023-03-24T02:03:00.894Z,99498.41
2023-03-24T02:05:33.644Z,99487.88
2023-03-24T02:08:13.140Z,99488.19
2023-03-24T02:10:40.101Z,99486.78
2023-03-24T02:13:07.623Z,99479.09
2023-03-24T02:15:38.213Z,99470.97
2023-03-24T02:18:25.580Z,99462.00
2023-03-24T02:21:19.816Z,99471.31
2023-03-24T02:24:34.196Z,99444.34
2023-03-24T02:27:30.082Z,99447.78
2023-03-24T02:30:07.060Z,99444.47
2023-03-24T02:32:55.406Z,99434.38
2023-03-24T02:35:59.536Z,99443.22
2023-03-24T02:38:29.009Z,99436.91
2023-03-24T02:41:22.738Z,99442.00
2023-03-24T02:43:54.008Z,99435.00
2023-03-24T02:46:27.021Z,99443.50
2023-03-24T02:49:14.682Z,99436.72
2023-03-24T02:51:53.641Z,99439.84
2023-03-24T02:54:34.663Z,99434.19
2023-03-24T02:57:09.276Z,99442.69
2023-03-24T02:59:49.316Z,99431.09
2023-03-24T03:02:23.061Z,99417.22
2023-03-24T03:05:03.231Z,99428.59
2023-03-24T03:07:37.385Z,99429.53
2023-03-24T03:10:14.299Z,99428.41
2023-03-24T03:12:44.194Z,99424.75
2023-03-24T03:15:18.796Z,99425.09
2023-03-24T03:17:59.784Z,99424.53
2023-03-24T03:20:31.025Z,99422.69
2023-03-24T03:23:02.472Z,99433.50
2023-03-24T03:25:35.844Z,99416.72
2023-03-24T03:28:04.750Z,99405.72
2023-03-24T03:30:37.643Z,99423.19
2023-03-24T03:33:10.274Z,99412.81
2023-03-24T03:35:43.011Z,99418.56
2023-03-24T03:38:51.740Z,99414.31
2023-03-24T03:41:19.271Z,99415.09
2023-03-24T03:43:48.506Z,99429.16
2023-03-24T03:46:16.589Z,99425.09
2023-03-24T03:48:43.490Z,99412.50
2023-03-24T03:51:13.748Z,99418.91
2023-03-24T03:54:02.430Z,99403.63
2023-03-24T03:56:32.244Z,99417.84
2023-03-24T03:58:58.704Z,99422.50
2023-03-24T04:01:29.628Z,99415.09
2023-03-24T04:04:20.142Z,99427.72
2023-03-24T04:07:11.346Z,99424.66
2023-03-24T04:09:58.380Z,99440.19
2023-03-24T04:12:37.035Z,99434.53
2023-03-24T04:15:15.611Z,99439.50
2023-03-24T04:17:50.792Z,99438.00
2023-03-24T04:20:32.588Z,99443.97
2023-03-24T04:23:19.959Z,99453.97
2023-03-24T04:25:58.527Z,99469.72
2023-03-24T04:28:41.825Z,99486.53
2023-03-24T04:31:26.269Z,99481.44
2023-03-24T04:34:03.122Z,99483.03
2023-03-24T04:36:42.492Z,99493.16
2023-03-24T04:39:17.033Z,99495.22
2023-03-24T04:41:47.236Z,99510.34
2023-03-24T04:44:17.554Z,99511.28
2023-03-24T04:46:44.633Z,99530.22
2023-03-24T04:49:11.371Z,99533.91
2023-03-24T04:51:38.766Z,99535.38
2023-03-24T04:54:05.467Z,99532.16
2023-03-24T04:56:59.402Z,99543.97
2023-03-24T04:59:26.092Z,99546.63
2023-03-24T05:01:52.531Z,99541.44
2023-03-24T05:04:22.291Z,99548.53
2023-03-24T05:06:51.596Z,99550.13
2023-03-24T05:09:21.207Z,99572.63
2023-03-24T05:11:48.329Z,99566.97
2023-03-24T05:14:15.780Z,99579.41
2023-03-24T05:16:42.189Z,99578.22
2023-03-24T05:19:08.949Z,99600.59
2023-03-24T05:21:35.853Z,99600.47
2023-03-24T05:24:02.845Z,99610.44
2023-03-24T05:26:31.278Z,99619.31
2023-03-24T05:28:59.289Z,99621.50
2023-03-24T05:31:25.658Z,99617.03
2023-03-24T05:33:52.172Z,99625.31
2023-03-24T05:36:18.632Z,99625.34
2023-03-24T05:38:45.259Z,99631.25
2023-03-24T05:41:11.593Z,99649.06
2023-03-24T05:43:38.007Z,99659.03
2023-03-24T05:46:04.487Z,99671.44
2023-03-24T05:48:31.019Z,99676.81
2023-03-24T05:50:57.375Z,99683.69
2023-03-24T05:53:23.727Z,99691.06
2023-03-24T05:55:53.498Z,99700.38
2023-03-24T05:58:21.180Z,99704.25
2023-03-24T06:00:47.690Z,99712.19
2023-03-24T06:03:14.132Z,99702.50
2023-03-24T06:05:40.628Z,99709.41
2023-03-24T06:08:09.824Z,99718.31
2023-03-24T06:10:36.867Z,99713.44
2023-03-24T06:13:03.600Z,99724.81
2023-03-24T06:15:30.682Z,99732.16
2023-03-24T06:17:57.160Z,99730.53
2023-03-24T06:20:23.644Z,99736.22
2023-03-24T06:22:50.307Z,99759.97
2023-03-24T06:25:20.205Z,99762.22
2023-03-24T06:27:46.761Z,99758.19
2023-03-24T06:30:15.686Z,99761.66
2023-03-24T06:32:46.454Z,99749.75
2023-03-24T06:35:15.141Z,99749.75
2023-03-24T06:37:41.873Z,99758.66
2023-03-24T06:40:11.088Z,99759.25
2023-03-24T06:42:37.624Z,99772.41
2023-03-24T06:45:04.771Z,99761.88
2023-03-24T06:47:31.165Z,99768.34
2023-03-24T06:49:57.564Z,99768.34
2023-03-24T06:52:24.733Z,99769.59
2023-03-24T06:54:51.076Z,99768.38
2023-03-24T06:57:17.912Z,99762.50
2023-03-24T06:59:44.496Z,99765.53
2023-03-24T07:02:12.639Z,99764.34
2023-03-24T07:04:39.055Z,99774.06
2023-03-24T07:07:38.109Z,99790.88
2023-03-24T07:09:52.077Z,99795.72
2023-03-24T07:12:18.474Z,99786.00
2023-03-24T07:14:44.848Z,99779.53
2023-03-24T07:17:11.280Z,99792.03
2023-03-24T07:19:37.712Z,99793.06
2023-03-24T07:22:04.132Z,99791.84
2023-03-24T07:24:31.799Z,99794.28
2023-03-24T07:26:58.357Z,99782.91
2023-03-24T07:29:24.835Z,99787.13
2023-03-24T07:31:53.220Z,99800.66
2023-03-24T07:34:21.178Z,99788.72
2023-03-24T07:36:47.498Z,99787.25
2023-03-24T07:39:13.970Z,99791.63
2023-03-24T07:41:40.980Z,99788.28
2023-03-24T07:44:07.663Z,99793.13
2023-03-24T07:46:34.191Z,99790.63
2023-03-24T07:49:12.219Z,99796.63
2023-03-24T07:51:44.978Z,99804.03
2023-03-24T07:54:11.382Z,99819.38
2023-03-24T07:56:37.804Z,99816.69
2023-03-24T07:59:04.596Z,99829.09
2023-03-24T08:01:31.744Z,99832.63
2023-03-24T08:03:58.373Z,99835.16
2023-03-24T08:06:25.029Z,99847.78
2023-03-24T08:08:51.442Z,99844.13
2023-03-24T08:11:17.830Z,99850.69
2023-03-24T08:13:44.323Z,99851.69
2023-03-24T08:16:11.001Z,99841.69
2023-03-24T08:18:37.530Z,99848.97
2023-03-24T08:21:04.480Z,99845.97
2023-03-24T08:23:31.085Z,99850.63
2023-03-24T08:25:57.680Z,99837.09
2023-03-24T08:28:24.092Z,99843.59
2023-03-24T08:30:50.867Z,99825.47
2023-03-24T08:33:17.717Z,99836.16
2023-03-24T08:35:47.718Z,99838.56
2023-03-24T08:38:18.621Z,99838.66
2023-03-24T08:40:45.702Z,99853.16
2023-03-24T08:43:15.925Z,99842.69
2023-03-24T08:45:42.472Z,99841.09
2023-03-24T08:48:09.668Z,99839.41
2023-03-24T08:50:39.527Z,99847.78
2023-03-24T08:53:06.266Z,99856.72
2023-03-24T08:55:33.237Z,99854.00
2023-03-24T08:58:00.577Z,99847.31
2023-03-24T09:00:28.935Z,99837.81
2023-03-24T09:02:56.414Z,99851.97
2023-03-24T09:05:36.616Z,99854.69
2023-03-24T09:08:11.118Z,99867.53
2023-03-24T09:10:38.550Z,99862.84
2023-03-24T09:13:05.237Z,99863.44
2023-03-24T09:15:32.246Z,99868.34
2023-03-24T09:17:59.661Z,99866.28
2023-03-24T09:20:26.363Z,99857.53
2023-03-24T09:22:52.776Z,99864.03
2023-03-24T09:25:20.668Z,99862.13
2023-03-24T09:27:47.628Z,99860.56
2023-03-24T09:30:16.479Z,99861.50
2023-03-24T09:32:43.840Z,99868.06
2023-03-24T09:35:10.398Z,99871.84
2023-03-24T09:37:38.741Z,99881.78
2023-03-24T09:40:06.726Z,99874.88
2023-03-24T09:42:38.656Z,99860.47
2023-03-24T09:45:13.306Z,99887.06
2023-03-24T09:47:44.317Z,99877.09
2023-03-24T09:50:24.728Z,99876.25
2023-03-24T09:52:56.352Z,99881.97
2023-03-24T09:55:25.980Z,99883.22
2023-03-24T09:57:56.141Z,99895.88
2023-03-24T10:00:23.096Z,99900.31
2023-03-24T10:02:51.979Z,99893.75
2023-03-24T10:05:43.921Z,99901.06
2023-03-24T10:08:26.500Z,99897.84
2023-03-24T10:11:04.293Z,99900.84
2023-03-24T10:13:47.684Z,99915.19
2023-03-24T10:16:54.222Z,99916.66
2023-03-24T10:19:32.302Z,99921.34
2023-03-24T10:22:05.821Z,99926.13
2023-03-24T10:24:55.880Z,99921.88
2023-03-24T10:27:45.309Z,99905.28
2023-03-24T10:30:14.424Z,99915.31
2023-03-24T10:32:42.778Z,99924.41
2023-03-24T10:35:37.854Z,99920.56
2023-03-24T10:38:17.400Z,99931.25
2023-03-24T10:40:45.175Z,99920.06
2023-03-24T10:43:12.146Z,99940.22
2023-03-24T10:45:44.120Z,99934.88
2023-03-24T10:48:14.108Z,99935.56
2023-03-24T10:50:45.040Z,99935.63
2023-03-24T10:53:18.659Z,99940.16
2023-03-24T10:55:46.271Z,99938.09
2023-03-24T10:58:37.393Z,99932.03
2023-03-24T11:01:35.099Z,99931.06
2023-03-24T11:04:07.183Z,99924.56
2023-03-24T11:06:34.074Z,99921.03
2023-03-24T11:09:17.988Z,99925.28
2023-03-24T11:11:44.739Z,99912.78
2023-03-24T11:14:27.262Z,99913.31
2023-03-24T11:17:03.551Z,99920.59
2023-03-24T11:19:32.492Z,99925.31
2023-03-24T11:22:03.732Z,99915.78
2023-03-24T11:24:31.042Z,99931.50
2023-03-24T11:27:02.097Z,99925.78
2023-03-24T11:29:31.975Z,99921.97
2023-03-24T11:32:01.584Z,99928.06
2023-03-24T11:34:42.099Z,99945.31
2023-03-24T11:37:16.264Z,99923.97
2023-03-24T11:39:44.175Z,99925.72
2023-03-24T11:42:10.546Z,99931.13
2023-03-24T11:44:51.137Z,99932.53
2023-03-24T11:47:34.450Z,99942.75
2023-03-24T11:50:14.852Z,99935.63
2023-03-24T11:52:52.142Z,99924.78
2023-03-24T11:55:30.880Z,99922.19
2023-03-24T11:58:06.278Z,99933.00
2023-03-24T12:00:42.146Z,99935.59
2023-03-24T12:03:17.975Z,99941.59
2023-03-24T12:05:50.998Z,99926.34
2023-03-24T12:08:30.818Z,99934.88
2023-03-24T12:11:24.320Z,99922.31
2023-03-24T12:13:51.953Z,99914.38
2023-03-24T12:16:39.904Z,99922.00
2023-03-24T12:19:25.431Z,99913.47
2023-03-24T12:22:06.020Z,99909.59
2023-03-24T12:24:53.932Z,99905.19
2023-03-24T12:28:13.336Z,99915.34
2023-03-24T12:30:58.213Z,99908.88
2023-03-24T12:33:33.924Z,99904.41
2023-03-24T12:36:45.792Z,99897.50
2023-03-24T12:39:15.445Z,99899.47
2023-03-24T12:41:53.834Z,99899.34
2023-03-24T12:44:23.174Z,99893.25
2023-03-24T12:47:26.948Z,99896.94
2023-03-24T12:50:12.070Z,99886.44
2023-03-24T12:53:16.196Z,99883.06
2023-03-24T12:56:00.502Z,99888.84
2023-03-24T12:58:43.035Z,99888.50
2023-03-24T13:01:36.877Z,99889.69
2023-03-24T13:04:18.528Z,99878.16
2023-03-24T13:06:54.456Z,99888.53
2023-03-24T13:09:46.934Z,99887.41
2023-03-24T13:12:21.024Z,99886.22
2023-03-24T13:14:58.383Z,99886.75
2023-03-24T13:17:33.370Z,99887.38
2023-03-24T13:20:06.336Z,99886.97
2023-03-24T13:22:34.217Z,99899.91
2023-03-24T13:25:02.282Z,99887.97
2023-03-24T13:27:36.276Z,99880.31
2023-03-24T13:30:11.536Z,99891.19
2023-03-24T13:32:52.486Z,99874.56
2023-03-24T13:35:32.831Z,99877.06
2023-03-24T13:38:10.616Z,99877.69
2023-03-24T13:40:40.889Z,99874.69
2023-03-24T13:43:12.344Z,99866.72
2023-03-24T13:45:51.610Z,99866.88
2023-03-24T13:48:43.343Z,99865.63
2023-03-24T13:51:42.762Z,99854.25
2023-03-24T13:54:15.048Z,99848.53
2023-03-24T13:57:07.471Z,99836.53
2023-03-24T13:59:42.037Z,99845.50
2023-03-24T14:02:20.917Z,99853.00
2023-03-24T14:05:06.823Z,99852.03
2023-03-24T14:07:39.150Z,99905.25
2023-03-24T14:10:30.132Z,99922.75
2023-03-24T14:12:59.571Z,99905.81
2023-03-24T14:15:40.284Z,99890.59
2023-03-24T14:18:37.249Z,99885.34
2023-03-24T14:21:06.101Z,99880.13
2023-03-24T14:23:48.144Z,99875.31
2023-03-24T14:26:20.643Z,99873.66
2023-03-24T14:28:48.873Z,99875.16
2023-03-24T14:31:18.323Z,99868.13
2023-03-24T14:33:54.037Z,99863.03
2023-03-24T14:36:27.396Z,99874.25
2023-03-24T14:38:53.787Z,99864.34
2023-03-24T14:41:31.237Z,99868.16
2023-03-24T14:43:59.565Z,99868.69
2023-03-24T14:46:43.280Z,99884.56
2023-03-24T14:49:23.885Z,99881.00
2023-03-24T14:52:18.835Z,99887.34
2023-03-24T14:55:04.171Z,99879.00
2023-03-24T14:57:31.728Z,99879.59
2023-03-24T15:00:11.499Z,99893.09
2023-03-24T15:02:42.387Z,99889.00
2023-03-24T15:05:19.647Z,99880.63
2023-03-24T15:08:13.838Z,99881.13
2023-03-24T15:10:46.921Z,99864.88
2023-03-24T15:13:32.680Z,99870.13
2023-03-24T15:16:01.018Z,99869.88
2023-03-24T15:18:27.685Z,99871.84
2023-03-24T15:20:54.131Z,99873.97
2023-03-24T15:23:23.662Z,99860.38
2023-03-24T15:25:51.950Z,99851.50
2023-03-24T15:28:26.736Z,99851.44
2023-03-24T15:30:56.054Z,99849.31
2023-03-24T15:33:23.463Z,99848.00
2023-03-24T15:35:56.607Z,99841.66
2023-03-24T15:38:31.946Z,99836.34
2023-03-24T15:41:05.997Z,99839.81
2023-03-24T15:43:32.543Z,99825.63
2023-03-24T15:46:11.797Z,99828.28
2023-03-24T15:48:39.260Z,99829.06
2023-03-24T15:51:09.245Z,99866.81
2023-03-24T15:53:39.372Z,99908.88
2023-03-24T15:56:11.768Z,99922.06
2023-03-24T15:58:48.802Z,99907.34
2023-03-24T16:01:18.926Z,99892.22
2023-03-24T16:03:50.503Z,99885.38
2023-03-24T16:06:27.151Z,99888.16
2023-03-24T16:08:53.591Z,99897.47
2023-03-24T16:11:21.094Z,99894.63
2023-03-24T16:13:47.453Z,99891.38
2023-03-24T16:16:13.856Z,99890.59
2023-03-24T16:18:45.946Z,99890.78
2023-03-24T16:21:19.357Z,99876.75
2023-03-24T16:23:47.387Z,99882.63
2023-03-24T16:26:16.186Z,99881.28
2023-03-24T16:28:43.219Z,99878.66
2023-03-24T16:31:21.829Z,99884.34
2023-03-24T16:33:49.042Z,99882.13
2023-03-24T16:36:16.148Z,99901.81
2023-03-24T16:38:42.481Z,99896.53
2023-03-24T16:41:11.002Z,99902.41
2023-03-24T16:43:37.460Z,99899.81
2023-03-24T16:46:05.550Z,99895.53
2023-03-24T16:48:32.166Z,99891.91
2023-03-24T16:50:58.545Z,99887.03
2023-03-24T16:53:24.953Z,99888.25
2023-03-24T16:55:51.336Z,99887.84
2023-03-24T16:58:18.080Z,99885.19
2023-03-24T17:00:45.466Z,99894.91
2023-03-24T17:03:13.790Z,99889.03
2023-03-24T17:05:46.450Z,99880.84
2023-03-24T17:08:13.283Z,99889.53
2023-03-24T17:10:42.148Z,99887.31
2023-03-24T17:13:09.904Z,99882.22
2023-03-24T17:15:36.409Z,99900.47
2023-03-24T17:18:03.905Z,99895.81
2023-03-24T17:20:30.435Z,99899.13
2023-03-24T17:22:56.995Z,99900.97
2023-03-24T17:25:23.872Z,99901.56
2023-03-24T17:27:51.139Z,99901.81
2023-03-24T17:30:21.042Z,99898.97
2023-03-24T17:32:48.234Z,99909.91
2023-03-24T17:35:17.996Z,99919.84
2023-03-24T17:37:44.808Z,99918.66
2023-03-24T17:40:13.062Z,99917.69
2023-03-24T17:42:43.279Z,99927.00
2023-03-24T17:45:16.832Z,99915.22
2023-03-24T17:47:43.961Z,99921.09
2023-03-24T17:50:11.202Z,99919.50
2023-03-24T17:52:44.820Z,99920.13
2023-03-24T17:55:13.030Z,99913.22
2023-03-24T17:57:39.577Z,99914.03
2023-03-24T18:00:08.735Z,99919.13
2023-03-24T18:02:35.326Z,99914.25
2023-03-24T18:05:02.173Z,99917.50
2023-03-24T18:07:28.750Z,99916.50
2023-03-24T18:09:55.104Z,99917.88
2023-03-24T18:12:22.252Z,99913.25
2023-03-24T18:14:48.652Z,99915.91
2023-03-24T18:17:15.747Z,99924.56
2023-03-24T18:19:42.779Z,99914.66
2023-03-24T18:22:09.358Z,99914.66
2023-03-24T18:24:36.407Z,99915.88
2023-03-24T18:27:03.734Z,99914.84
2023-03-24T18:29:30.483Z,99922.38
2023-03-24T18:31:57.249Z,99919.72
2023-03-24T18:34:23.929Z,99921.34
2023-03-24T18:36:50.313Z,99920.72
2023-03-24T18:39:17.003Z,99916.88
2023-03-24T18:41:43.461Z,99914.03
2023-03-24T18:44:12.867Z,99907.34
2023-03-24T18:46:39.599Z,99907.34
2023-03-24T18:49:07.104Z,99907.19
2023-03-24T18:51:33.638Z,99913.25
2023-03-24T18:54:00.158Z,99915.25
2023-03-24T18:56:26.704Z,99916.50
2023-03-24T18:58:53.221Z,99913.44
2023-03-24T19:01:22.702Z,99912.22
2023-03-24T19:03:50.963Z,99911.84
2023-03-24T19:06:17.738Z,99917.72
2023-03-24T19:08:49.799Z,99906.56
2023-03-24T19:11:16.379Z,99899.50
2023-03-24T19:13:46.134Z,99901.31
2023-03-24T19:16:12.980Z,99903.72
2023-03-24T19:18:39.486Z,99892.00
2023-03-24T19:21:06.965Z,99891.38
2023-03-24T19:23:33.808Z,99889.75
2023-03-24T19:26:01.869Z,99882.47
2023-03-24T19:28:30.810Z,99891.59
2023-03-24T19:30:59.285Z,99891.78
2023-03-24T19:33:26.673Z,99900.50
2023-03-24T19:35:53.828Z,99906.16
2023-03-24T19:38:24.285Z,99903.72
2023-03-24T19:41:03.798Z,99907.78
2023-03-24T19:43:30.342Z,99913.25
2023-03-24T19:45:56.730Z,99919.53
2023-03-24T19:48:23.328Z,99919.91
2023-03-24T19:50:51.768Z,99928.03
2023-03-24T19:53:18.712Z,99929.22
2023-03-24T19:55:45.293Z,99939.16
2023-03-24T19:58:11.668Z,99938.94
2023-03-24T20:00:38.214Z,99934.72
2023-03-24T20:03:05.189Z,99930.44
2023-03-24T20:05:32.002Z,99930.66
2023-03-24T20:08:00.040Z,99923.97
2023-03-24T20:10:27.710Z,99915.47
2023-03-24T20:12:54.593Z,99911.00
2023-03-24T20:15:21.720Z,99915.47
2023-03-24T20:17:48.590Z,99917.09
2023-03-24T20:20:15.348Z,99919.13
2023-03-24T20:22:44.666Z,99919.13
2023-03-24T20:25:14.103Z,99913.88
2023-03-24T20:27:40.925Z,99914.47
2023-03-24T20:30:08.273Z,99902.09
2023-03-24T20:32:34.946Z,99904.34
2023-03-24T20:35:01.793Z,99901.91
2023-03-24T20:37:30.428Z,99897.84
2023-03-24T20:39:56.851Z,99894.63
2023-03-24T20:42:24.075Z,99898.84
2023-03-24T20:44:50.778Z,99898.25
2023-03-24T20:47:17.118Z,99896.66
2023-03-24T20:49:43.493Z,99896.22
2023-03-24T20:52:09.834Z,99892.97
2023-03-24T20:54:36.413Z,99892.38
2023-03-24T20:57:03.464Z,99892.81
2023-03-24T20:59:29.863Z,99883.88
2023-03-24T21:01:58.293Z,99890.97
2023-03-24T21:04:24.716Z,99891.16
2023-03-24T21:06:51.143Z,99893.19
2023-03-24T21:09:17.573Z,99891.38
2023-03-24T21:11:43.954Z,99891.59
2023-03-24T21:14:10.342Z,99899.69
2023-03-24T21:16:37.400Z,99902.53
2023-03-24T21:19:04.298Z,99900.09
2023-03-24T21:21:31.980Z,99903.72
2023-03-24T21:23:58.592Z,99900.09
2023-03-24T21:26:25.240Z,99898.47
2023-03-24T21:28:52.853Z,99898.47
2023-03-24T21:31:27.414Z,99895.84
2023-03-24T21:33:54.851Z,99888.53
2023-03-24T21:36:23.087Z,99893.19
2023-03-24T21:38:51.708Z,99896.44
2023-03-24T21:41:19.508Z,99895.00
2023-03-24T21:43:46.759Z,99896.03
2023-03-24T21:46:20.656Z,99891.59
2023-03-24T21:48:51.753Z,99887.13
2023-03-24T21:51:26.529Z,99886.13
2023-03-24T21:53:59.134Z,99891.16
2023-03-24T21:56:25.565Z,99890.56
2023-03-24T21:58:55.047Z,99893.41
2023-03-24T22:01:22.212Z,99890.78
2023-03-24T22:03:48.861Z,99890.34
2023-03-24T22:06:15.315Z,99897.66
2023-03-24T22:08:44.618Z,99910.03
2023-03-24T22:11:11.632Z,99893.59
2023-03-24T22:13:39.264Z,99905.34
2023-03-24T22:16:07.031Z,99901.69
2023-03-24T22:18:34.387Z,99897.44
2023-03-24T22:21:06.780Z,99907.38
2023-03-24T22:23:39.327Z,99911.19
2023-03-24T22:26:14.813Z,99903.94
2023-03-24T22:28:42.199Z,99908.75
2023-03-24T22:31:11.274Z,99908.13
2023-03-24T22:33:38.633Z,99898.63
2023-03-24T22:36:06.270Z,99920.25
2023-03-24T22:38:34.292Z,99905.69
2023-03-24T22:41:03.718Z,99906.47
2023-03-24T22:43:30.678Z,99914.78
2023-03-24T22:45:59.140Z,99908.88
2023-03-24T22:48:25.659Z,99914.78
2023-03-24T22:50:52.803Z,99916.78
2023-03-24T22:53:21.953Z,99909.31
2023-03-24T22:55:48.801Z,99916.63
2023-03-24T22:58:16.220Z,99909.72
2023-03-24T23:00:44.114Z,99917.22
2023-03-24T23:03:11.252Z,99914.97
2023-03-24T23:05:42.229Z,99916.75
2023-03-24T23:08:09.611Z,99906.84
2023-03-24T23:10:37.019Z,99912.69
2023-03-24T23:13:04.077Z,99909.28
2023-03-24T23:15:31.855Z,99908.03
2023-03-24T23:17:58.553Z,99911.66
2023-03-24T23:20:25.813Z,99910.44
2023-03-24T23:22:52.431Z,99908.03
2023-03-24T23:25:19.065Z,99913.25
2023-03-24T23:27:46.179Z,99911.41
2023-03-24T23:30:14.866Z,99912.22
2023-03-24T23:32:41.628Z,99923.91
2023-03-24T23:35:09.809Z,99921.50
2023-03-24T23:37:37.478Z,99942.72
2023-03-24T23:40:11.818Z,99934.63
2023-03-24T23:42:43.607Z,99939.50
2023-03-24T23:45:14.323Z,99939.06
2023-03-24T23:47:42.195Z,99941.53
2023-03-24T23:50:09.093Z,99942.94
2023-03-24T23:52:35.724Z,99943.31
2023-03-24T23:55:02.203Z,99945.94
2023-03-24T23:57:29.527Z,99953.22
2023-03-24T23:59:56.463Z,99956.81
